createdAt,value
2017-11-17T00:00:39.191Z,23.02
2017-11-17T00:03:05.740Z,24.80
2017-11-17T00:05:32.392Z,26.75
2017-11-17T00:07:58.931Z,21.17
2017-11-17T00:10:25.503Z,22.87
2017-11-17T00:12:52.159Z,22.55
2017-11-17T00:15:18.697Z,28.20
2017-11-17T00:17:45.255Z,26.00
2017-11-17T00:20:11.924Z,27.62
2017-11-17T00:22:38.478Z,28.90
2017-11-17T00:25:05.023Z,26.15
2017-11-17T00:27:31.983Z,27.52
2017-11-17T00:29:58.546Z,23.40
2017-11-17T00:32:25.131Z,26.92
2017-11-17T00:34:51.784Z,25.90
2017-11-17T00:37:18.336Z,31.17
2017-11-17T00:39:44.902Z,23.25
2017-11-17T00:42:11.519Z,26.62
2017-11-17T00:44:38.095Z,34.03
2017-11-17T00:47:05.018Z,29.20
2017-11-17T00:49:31.815Z,28.10
2017-11-17T00:51:58.379Z,27.15
2017-11-17T00:54:25.339Z,29.20
2017-11-17T00:56:51.936Z,31.95
2017-11-17T00:59:18.474Z,31.40
2017-11-17T01:01:45.446Z,34.63
2017-11-17T01:04:12.503Z,32.22
2017-11-17T01:06:39.052Z,29.45
2017-11-17T01:09:05.599Z,30.85
2017-11-17T01:11:32.183Z,29.60
2017-11-17T01:13:58.739Z,29.92
2017-11-17T01:16:25.293Z,29.55
2017-11-17T01:18:52.175Z,32.53
2017-11-17T01:21:18.731Z,30.00
2017-11-17T01:23:45.655Z,32.33
2017-11-17T01:26:12.262Z,34.78
2017-11-17T01:28:39.184Z,30.80
2017-11-17T01:31:05.768Z,36.38
2017-11-17T01:33:32.417Z,39.17
2017-11-17T01:35:58.995Z,40.85
2017-11-17T01:38:25.559Z,38.88
2017-11-17T01:40:52.179Z,36.55
2017-11-17T01:43:18.754Z,42.33
2017-11-17T01:45:45.315Z,36.70
2017-11-17T01:48:11.915Z,37.78
2017-11-17T01:50:38.840Z,42.83
2017-11-17T01:53:05.392Z,31.95
2017-11-17T01:55:32.013Z,41.33
2017-11-17T01:57:58.989Z,35.17
2017-11-17T02:00:25.973Z,38.92
2017-11-17T02:02:52.645Z,35.92
2017-11-17T02:05:19.239Z,40.90
2017-11-17T02:07:45.813Z,38.65
2017-11-17T02:10:12.824Z,33.05
2017-11-17T02:12:39.398Z,37.67
2017-11-17T02:15:05.963Z,36.63
2017-11-17T02:17:32.566Z,49.95
2017-11-17T02:19:59.197Z,41.22
2017-11-17T02:22:25.843Z,36.80
2017-11-17T02:24:52.535Z,37.40
2017-11-17T02:27:19.165Z,45.78
2017-11-17T02:29:45.779Z,33.75
2017-11-17T02:32:12.463Z,37.90
2017-11-17T02:34:39.221Z,39.50
2017-11-17T02:37:05.817Z,37.38
2017-11-17T02:39:32.465Z,30.40
2017-11-17T02:41:59.096Z,34.15
2017-11-17T02:44:26.084Z,35.60
2017-11-17T02:46:52.758Z,42.15
2017-11-17T02:49:19.369Z,32.85
2017-11-17T02:51:45.979Z,31.95
2017-11-17T02:54:12.659Z,29.73
2017-11-17T02:56:39.275Z,25.20
2017-11-17T02:59:06.280Z,31.60
2017-11-17T03:01:32.916Z,30.95
2017-11-17T03:03:59.865Z,27.50
2017-11-17T03:06:26.445Z,30.30
2017-11-17T03:08:53.279Z,29.52
2017-11-17T03:11:19.936Z,27.42
2017-11-17T03:13:46.524Z,25.45
2017-11-17T03:16:13.527Z,30.52
2017-11-17T03:18:40.087Z,24.83
2017-11-17T03:21:06.694Z,23.77
2017-11-17T03:23:33.329Z,33.08
2017-11-17T03:25:59.947Z,24.23
2017-11-17T03:28:26.947Z,24.75
2017-11-17T03:30:53.650Z,26.83
2017-11-17T03:33:20.203Z,23.17
2017-11-17T03:35:46.828Z,25.27
2017-11-17T03:38:13.460Z,30.70
2017-11-17T03:40:40.394Z,25.10
2017-11-17T03:43:06.943Z,27.60
2017-11-17T03:45:33.696Z,27.05
2017-11-17T03:48:07.178Z,26.65
2017-11-17T03:50:33.771Z,20.60
2017-11-17T03:53:00.748Z,25.42
2017-11-17T03:55:27.308Z,28.55
2017-11-17T03:57:54.015Z,25.60
2017-11-17T04:00:20.627Z,29.02
2017-11-17T04:02:47.174Z,36.38
2017-11-17T04:05:13.820Z,24.35
2017-11-17T04:07:40.412Z,28.45
2017-11-17T04:10:07.373Z,30.65
2017-11-17T04:12:34.372Z,32.75
2017-11-17T04:15:00.964Z,33.53
2017-11-17T04:17:27.544Z,34.63
2017-11-17T04:20:01.539Z,35.67
2017-11-17T04:22:28.103Z,37.55
2017-11-17T04:24:55.074Z,32.47
2017-11-17T04:27:21.699Z,38.03
2017-11-17T04:29:48.636Z,39.50
2017-11-17T04:32:15.183Z,35.78
2017-11-17T04:34:41.823Z,40.67
2017-11-17T04:37:08.435Z,35.13
2017-11-17T04:39:35.021Z,38.38
2017-11-17T04:42:01.807Z,34.63
2017-11-17T04:44:28.376Z,46.10
2017-11-17T04:46:54.992Z,37.30
2017-11-17T04:49:21.715Z,42.33
2017-11-17T04:51:48.334Z,36.10
2017-11-17T04:54:14.895Z,39.47
2017-11-17T04:56:41.515Z,35.60
2017-11-17T04:59:08.092Z,32.33
2017-11-17T05:01:34.671Z,36.70
2017-11-17T05:04:01.304Z,34.85
2017-11-17T05:06:27.877Z,34.70
2017-11-17T05:08:54.439Z,35.63
2017-11-17T05:11:21.439Z,33.38
2017-11-17T05:13:47.984Z,36.40
2017-11-17T05:16:14.551Z,32.28
2017-11-17T05:18:41.170Z,31.90
2017-11-17T05:21:07.754Z,38.45
2017-11-17T05:23:34.332Z,40.00
2017-11-17T05:26:01.312Z,36.60
2017-11-17T05:28:27.858Z,38.25
2017-11-17T05:30:54.415Z,35.65
2017-11-17T05:33:21.019Z,33.35
2017-11-17T05:35:48.035Z,35.88
2017-11-17T05:38:14.639Z,35.13
2017-11-17T05:40:41.711Z,35.45
2017-11-17T05:43:08.317Z,34.55
2017-11-17T05:45:34.904Z,34.60
2017-11-17T05:48:01.507Z,36.28
2017-11-17T05:50:28.067Z,35.30
2017-11-17T05:52:54.637Z,37.92
2017-11-17T05:55:22.419Z,35.20
2017-11-17T05:57:49.338Z,38.10
2017-11-17T06:00:15.872Z,41.28
2017-11-17T06:02:42.463Z,37.38
2017-11-17T06:05:09.367Z,39.92
2017-11-17T06:07:35.914Z,38.00
2017-11-17T06:10:02.571Z,33.33
2017-11-17T06:12:29.331Z,40.67
2017-11-17T06:14:55.980Z,41.13
2017-11-17T06:17:22.583Z,42.22
2017-11-17T06:19:49.139Z,33.22
2017-11-17T06:22:15.686Z,37.78
2017-11-17T06:24:42.389Z,40.47
2017-11-17T06:27:08.987Z,37.63
2017-11-17T06:29:35.553Z,35.83
2017-11-17T06:32:02.163Z,39.08
2017-11-17T06:34:29.108Z,48.28
2017-11-17T06:36:56.092Z,40.12
2017-11-17T06:39:22.714Z,39.97
2017-11-17T06:41:49.703Z,40.53
2017-11-17T06:44:16.251Z,41.13
2017-11-17T06:46:42.934Z,40.70
2017-11-17T06:49:09.481Z,39.50
2017-11-17T06:51:36.024Z,42.05
2017-11-17T06:54:02.667Z,40.50
2017-11-17T06:56:29.220Z,44.05
2017-11-17T06:58:55.784Z,38.60
2017-11-17T07:01:22.379Z,38.92
2017-11-17T07:03:48.935Z,44.58
2017-11-17T07:06:15.479Z,43.00
2017-11-17T07:08:56.956Z,36.92
2017-11-17T07:11:23.871Z,38.20
2017-11-17T07:13:50.471Z,36.88
2017-11-17T07:16:17.409Z,39.20
2017-11-17T07:18:43.970Z,40.88
2017-11-17T07:21:10.510Z,39.78
2017-11-17T07:23:37.482Z,39.85
2017-11-17T07:26:04.018Z,44.15
2017-11-17T07:28:30.572Z,40.08
2017-11-17T07:30:57.268Z,42.65
2017-11-17T07:33:23.820Z,44.85
2017-11-17T07:35:50.372Z,44.78
2017-11-17T07:38:17.022Z,36.80
2017-11-17T07:40:43.571Z,41.35
2017-11-17T07:43:10.119Z,43.33
2017-11-17T07:45:36.713Z,35.92
2017-11-17T07:48:03.275Z,32.47
2017-11-17T07:50:29.827Z,32.75
2017-11-17T07:52:56.450Z,37.63
2017-11-17T07:55:23.023Z,40.85
2017-11-17T07:57:49.567Z,35.85
2017-11-17T08:00:16.191Z,37.10
2017-11-17T08:02:42.752Z,35.08
2017-11-17T08:05:09.311Z,35.70
2017-11-17T08:07:35.914Z,34.30
2017-11-17T08:10:02.871Z,37.20
2017-11-17T08:12:29.838Z,31.83
2017-11-17T08:14:56.806Z,32.50
2017-11-17T08:17:31.100Z,30.70
2017-11-17T08:19:57.763Z,33.08
2017-11-17T08:22:24.727Z,36.22
2017-11-17T08:24:51.676Z,30.65
2017-11-17T08:27:18.660Z,37.95
2017-11-17T08:29:45.268Z,30.60
2017-11-17T08:32:11.810Z,29.30
2017-11-17T08:34:38.448Z,31.73
2017-11-17T08:37:05.076Z,37.00
2017-11-17T08:39:31.640Z,32.47
2017-11-17T08:41:58.270Z,34.72
2017-11-17T08:44:24.826Z,32.83
2017-11-17T08:46:51.376Z,36.10
2017-11-17T08:49:17.996Z,31.12
2017-11-17T08:51:44.571Z,31.42
2017-11-17T08:54:11.159Z,29.02
2017-11-17T08:56:38.200Z,35.05
2017-11-17T08:59:04.784Z,30.40
2017-11-17T09:01:31.719Z,34.03
2017-11-17T09:03:58.699Z,29.05
2017-11-17T09:06:25.252Z,30.00
2017-11-17T09:08:51.808Z,30.17
2017-11-17T09:11:18.415Z,30.80
2017-11-17T09:13:44.970Z,38.65
2017-11-17T09:16:11.909Z,33.05
2017-11-17T09:18:38.524Z,31.92
2017-11-17T09:21:05.072Z,32.45
2017-11-17T09:23:31.623Z,33.72
2017-11-17T09:25:58.324Z,32.75
2017-11-17T09:28:25.335Z,34.85
2017-11-17T09:30:51.887Z,30.42
2017-11-17T09:33:18.547Z,35.28
2017-11-17T09:35:45.103Z,32.97
2017-11-17T09:38:11.700Z,37.90
2017-11-17T09:40:38.326Z,34.58
2017-11-17T09:43:05.242Z,33.33
2017-11-17T09:45:31.841Z,29.65
2017-11-17T09:47:58.472Z,29.30
2017-11-17T09:50:25.398Z,28.55
2017-11-17T09:52:51.960Z,29.92
2017-11-17T09:55:18.604Z,30.77
2017-11-17T09:57:45.183Z,32.72
2017-11-17T10:00:12.211Z,28.52
2017-11-17T10:02:38.832Z,27.62
2017-11-17T10:05:05.441Z,29.98
2017-11-17T10:07:32.425Z,26.15
2017-11-17T10:09:59.064Z,29.20
2017-11-17T10:12:25.636Z,31.95
2017-11-17T10:14:52.218Z,29.73
2017-11-17T10:17:18.860Z,26.95
2017-11-17T10:19:45.472Z,31.08
2017-11-17T10:22:12.024Z,27.77
2017-11-17T10:24:38.679Z,29.35
2017-11-17T10:27:05.255Z,28.77
2017-11-17T10:29:31.839Z,28.00
2017-11-17T10:31:58.471Z,27.35
2017-11-17T10:34:25.462Z,27.25
2017-11-17T10:36:52.043Z,25.70
2017-11-17T10:39:18.676Z,29.98
2017-11-17T10:41:45.250Z,25.33
2017-11-17T10:44:11.827Z,27.45
2017-11-17T10:46:38.826Z,27.10
2017-11-17T10:49:05.396Z,28.98
2017-11-17T10:51:31.999Z,27.02
2017-11-17T10:53:58.643Z,26.90
2017-11-17T10:56:25.270Z,26.98
2017-11-17T10:58:52.269Z,27.60
2017-11-17T11:01:18.888Z,27.98
2017-11-17T11:03:45.864Z,28.33
2017-11-17T11:06:12.507Z,28.50
2017-11-17T11:08:39.148Z,28.65
2017-11-17T11:11:11.753Z,29.02
2017-11-17T11:13:38.363Z,27.85
2017-11-17T11:16:04.982Z,28.10
2017-11-17T11:18:31.566Z,26.17
2017-11-17T11:21:05.420Z,24.90
2017-11-17T11:23:32.016Z,31.48
2017-11-17T11:25:58.620Z,29.42
2017-11-17T11:28:25.248Z,26.08
2017-11-17T11:30:51.827Z,27.73
2017-11-17T11:33:18.395Z,30.25
2017-11-17T11:35:45.152Z,30.05
2017-11-17T11:38:11.775Z,26.65
2017-11-17T11:40:38.345Z,29.37
2017-11-17T11:43:05.135Z,26.15
2017-11-17T11:45:33.519Z,31.23
2017-11-17T11:48:00.108Z,30.90
2017-11-17T11:50:26.744Z,27.13
2017-11-17T11:52:53.295Z,33.40
2017-11-17T11:55:19.896Z,28.67
2017-11-17T11:57:46.496Z,30.90
2017-11-17T12:00:13.116Z,29.08
2017-11-17T12:02:40.046Z,29.92
2017-11-17T12:05:06.804Z,30.62
2017-11-17T12:07:33.367Z,25.73
2017-11-17T12:10:00.288Z,31.98
2017-11-17T12:12:26.942Z,27.25
2017-11-17T12:14:53.488Z,29.42
2017-11-17T12:17:20.031Z,31.65
2017-11-17T12:19:46.667Z,27.48
2017-11-17T12:22:13.218Z,30.95
2017-11-17T12:24:39.754Z,30.85
2017-11-17T12:27:06.355Z,27.15
2017-11-17T12:29:33.263Z,33.20
2017-11-17T12:31:59.818Z,24.80
2017-11-17T12:34:26.426Z,27.25
2017-11-17T12:36:52.987Z,25.17
2017-11-17T12:39:19.527Z,29.45
2017-11-17T12:41:46.144Z,30.37
2017-11-17T12:44:13.069Z,32.40
2017-11-17T12:46:39.614Z,57.83
2017-11-17T12:49:06.296Z,25.45
2017-11-17T12:51:32.885Z,24.58
2017-11-17T12:53:59.439Z,29.50
2017-11-17T12:56:26.028Z,27.13
2017-11-17T12:58:52.583Z,30.48
2017-11-17T13:01:19.133Z,28.73
2017-11-17T13:03:46.116Z,30.42
2017-11-17T13:06:12.714Z,28.65
2017-11-17T13:08:39.284Z,24.58
2017-11-17T13:11:06.251Z,31.30
2017-11-17T13:13:33.172Z,25.67
2017-11-17T13:15:59.723Z,27.15
2017-11-17T13:18:26.345Z,32.83
2017-11-17T13:20:52.907Z,26.98
2017-11-17T13:23:19.468Z,37.10
2017-11-17T13:25:46.060Z,29.20
2017-11-17T13:28:12.615Z,27.15
2017-11-17T13:30:39.171Z,23.80
2017-11-17T13:33:05.776Z,24.73
2017-11-17T13:35:32.691Z,25.98
2017-11-17T13:37:59.248Z,26.42
2017-11-17T13:40:25.889Z,30.62
2017-11-17T13:42:52.441Z,28.00
2017-11-17T13:45:18.989Z,26.85
2017-11-17T13:47:45.605Z,29.12
2017-11-17T13:50:12.146Z,26.40
2017-11-17T13:52:38.683Z,27.02
2017-11-17T13:55:05.316Z,29.20
2017-11-17T13:57:32.256Z,30.83
2017-11-17T13:59:58.827Z,31.05
2017-11-17T14:02:25.444Z,27.13
2017-11-17T14:04:51.995Z,30.00
2017-11-17T14:07:18.587Z,24.45
2017-11-17T14:09:45.263Z,26.77
2017-11-17T14:12:11.827Z,31.98
2017-11-17T14:14:38.376Z,26.70
2017-11-17T14:17:04.995Z,33.80
2017-11-17T14:19:31.536Z,31.17
2017-11-17T14:21:58.103Z,28.55
2017-11-17T14:24:24.716Z,30.73
2017-11-17T14:26:51.631Z,25.08
2017-11-17T14:29:18.228Z,31.37
2017-11-17T14:31:44.900Z,28.80
2017-11-17T14:34:11.523Z,34.90
2017-11-17T14:36:38.166Z,32.08
2017-11-17T14:39:05.209Z,27.15
2017-11-17T14:41:32.138Z,30.62
2017-11-17T14:43:58.731Z,24.20
2017-11-17T14:46:25.356Z,28.27
2017-11-17T14:48:52.263Z,26.90
2017-11-17T14:51:18.824Z,29.25
2017-11-17T14:53:45.427Z,29.17
2017-11-17T14:56:11.974Z,21.60
2017-11-17T14:58:38.908Z,22.27
2017-11-17T15:01:12.482Z,27.65
2017-11-17T15:03:39.077Z,30.20
2017-11-17T15:06:06.008Z,22.67
2017-11-17T15:08:32.687Z,21.80
2017-11-17T15:10:59.632Z,27.17
2017-11-17T15:13:26.196Z,23.15
2017-11-17T15:15:53.253Z,30.15
2017-11-17T15:18:20.232Z,26.27
2017-11-17T15:20:46.804Z,23.50
2017-11-17T15:23:13.419Z,28.45
2017-11-17T15:25:40.371Z,23.30
2017-11-17T15:28:06.980Z,24.27
2017-11-17T15:30:33.703Z,25.95
2017-11-17T15:33:00.336Z,23.85
2017-11-17T15:35:26.940Z,27.55
2017-11-17T15:37:54.048Z,28.62
2017-11-17T15:40:20.635Z,32.90
2017-11-17T15:42:47.594Z,28.08
2017-11-17T15:45:14.605Z,23.90
2017-11-17T15:47:41.220Z,27.50
2017-11-17T15:50:07.812Z,27.75
2017-11-17T15:52:34.463Z,26.77
2017-11-17T15:55:01.051Z,30.58
2017-11-17T15:57:28.007Z,28.58
2017-11-17T15:59:55.041Z,24.05
2017-11-17T16:02:21.651Z,25.92
2017-11-17T16:04:48.279Z,28.35
2017-11-17T16:07:14.919Z,28.05
2017-11-17T16:09:41.951Z,26.55
2017-11-17T16:12:08.583Z,26.00
2017-11-17T16:14:35.268Z,30.95
2017-11-17T16:17:02.236Z,27.55
2017-11-17T16:19:29.259Z,25.00
2017-11-17T16:21:56.316Z,28.62
2017-11-17T16:24:22.899Z,29.20
2017-11-17T16:26:49.823Z,25.70
2017-11-17T16:29:16.472Z,30.25
2017-11-17T16:31:43.070Z,28.52
2017-11-17T16:34:09.772Z,25.58
2017-11-17T16:36:36.412Z,28.75
2017-11-17T16:39:03.072Z,26.60
2017-11-17T16:41:29.709Z,30.65
2017-11-17T16:43:56.319Z,31.05
2017-11-17T16:46:22.943Z,36.00
2017-11-17T16:48:49.883Z,32.03
2017-11-17T16:51:16.641Z,31.60
2017-11-17T16:53:43.206Z,26.73
2017-11-17T16:56:10.183Z,27.17
2017-11-17T16:58:36.888Z,37.65
2017-11-17T17:01:03.488Z,27.00
2017-11-17T17:03:30.067Z,32.70
2017-11-17T17:05:56.731Z,31.90
2017-11-17T17:08:23.412Z,28.10
2017-11-17T17:10:50.104Z,35.05
2017-11-17T17:13:16.767Z,31.85
2017-11-17T17:15:43.372Z,29.30
2017-11-17T17:18:10.044Z,37.70
2017-11-17T17:20:36.720Z,31.48
2017-11-17T17:23:03.311Z,35.20
2017-11-17T17:25:29.890Z,25.83
2017-11-17T17:27:56.511Z,30.00
2017-11-17T17:30:23.084Z,30.48
2017-11-17T17:32:49.631Z,31.80
2017-11-17T17:35:16.381Z,26.10
2017-11-17T17:37:42.984Z,30.75
2017-11-17T17:40:09.919Z,41.67
2017-11-17T17:42:36.531Z,32.95
2017-11-17T17:45:03.135Z,29.35
2017-11-17T17:47:30.083Z,31.12
2017-11-17T17:49:56.723Z,29.42
2017-11-17T17:52:23.303Z,23.62
2017-11-17T17:54:49.893Z,28.95
2017-11-17T17:57:16.563Z,28.35
2017-11-17T17:59:43.112Z,28.17
2017-11-17T18:02:09.739Z,24.55
2017-11-17T18:04:36.432Z,29.70
2017-11-17T18:07:03.040Z,27.08
2017-11-17T18:09:29.696Z,28.70
2017-11-17T18:11:56.379Z,29.25
2017-11-17T18:14:23.311Z,31.17
2017-11-17T18:16:49.875Z,25.17
2017-11-17T18:19:16.483Z,26.98
2017-11-17T18:21:43.091Z,31.35
2017-11-17T18:24:09.664Z,32.17
2017-11-17T18:26:36.403Z,34.15
2017-11-17T18:29:02.958Z,25.85
2017-11-17T18:31:29.561Z,27.23
2017-11-17T18:33:56.170Z,36.10
2017-11-17T18:36:22.772Z,29.95
2017-11-17T18:38:49.320Z,28.45
2017-11-17T18:41:16.387Z,33.08
2017-11-17T18:43:43.366Z,30.92
2017-11-17T18:46:09.963Z,34.42
2017-11-17T18:48:36.618Z,31.10
2017-11-17T18:51:03.737Z,27.42
2017-11-17T18:53:30.356Z,30.80
2017-11-17T18:55:57.310Z,29.90
2017-11-17T18:58:23.912Z,33.40
2017-11-17T19:00:50.484Z,31.98
2017-11-17T19:03:17.196Z,30.80
2017-11-17T19:05:44.656Z,33.08
2017-11-17T19:08:11.259Z,28.23
2017-11-17T19:10:37.911Z,26.37
2017-11-17T19:13:04.898Z,38.95
2017-11-17T19:15:31.788Z,29.35
2017-11-17T19:17:58.479Z,33.80
2017-11-17T19:20:25.387Z,32.38
2017-11-17T19:22:52.780Z,34.28
2017-11-17T19:25:19.470Z,35.33
2017-11-17T19:27:46.011Z,30.73
2017-11-17T19:30:12.948Z,31.33
2017-11-17T19:32:39.639Z,25.62
2017-11-17T19:35:06.199Z,32.28
2017-11-17T19:37:32.759Z,39.17
2017-11-17T19:39:59.364Z,31.02
2017-11-17T19:42:25.973Z,28.33
2017-11-17T19:44:52.532Z,36.72
2017-11-17T19:47:19.158Z,30.95
2017-11-17T19:49:45.721Z,36.20
2017-11-17T19:52:12.267Z,36.42
2017-11-17T19:54:39.820Z,35.88
2017-11-17T19:57:07.491Z,27.10
2017-11-17T19:59:34.216Z,28.55
2017-11-17T20:02:00.831Z,29.20
2017-11-17T20:04:27.755Z,29.67
2017-11-17T20:06:55.208Z,33.58
2017-11-17T20:09:21.831Z,28.50
2017-11-17T20:11:48.372Z,31.05
2017-11-17T20:14:15.786Z,28.30
2017-11-17T20:16:42.472Z,33.88
2017-11-17T20:19:09.065Z,41.25
2017-11-17T20:21:35.611Z,26.60
2017-11-17T20:24:02.311Z,30.08
2017-11-17T20:26:29.304Z,30.58
2017-11-17T20:28:55.872Z,26.35
2017-11-17T20:31:22.491Z,28.27
2017-11-17T20:33:49.051Z,27.00
2017-11-17T20:36:15.660Z,25.20
2017-11-17T20:38:42.661Z,24.60
2017-11-17T20:41:10.211Z,26.10
2017-11-17T20:43:36.760Z,24.20
2017-11-17T20:46:03.356Z,31.45
2017-11-17T20:48:29.900Z,32.80
2017-11-17T20:50:58.382Z,31.65
2017-11-17T20:53:25.021Z,27.05
2017-11-17T20:55:52.418Z,28.27
2017-11-17T20:58:18.971Z,24.55
2017-11-17T21:00:46.424Z,20.20
2017-11-17T21:03:13.928Z,32.00
2017-11-17T21:05:42.599Z,27.35
2017-11-17T21:08:09.199Z,30.60
2017-11-17T21:10:35.747Z,30.67
2017-11-17T21:13:03.132Z,27.20
2017-11-17T21:15:30.607Z,21.90
2017-11-17T21:17:57.160Z,32.60
2017-11-17T21:20:24.720Z,30.52
2017-11-17T21:22:54.527Z,32.60
2017-11-17T21:25:22.163Z,24.92
2017-11-17T21:27:49.091Z,27.40
2017-11-17T21:30:15.699Z,36.40
2017-11-17T21:32:42.250Z,29.23
2017-11-17T21:35:08.811Z,29.80
2017-11-17T21:37:35.459Z,29.08
2017-11-17T21:40:02.099Z,27.25
2017-11-17T21:42:28.743Z,27.98
2017-11-17T21:44:55.356Z,19.37
2017-11-17T21:47:21.923Z,25.37
2017-11-17T21:49:48.455Z,30.67
2017-11-17T21:52:15.940Z,29.17
2017-11-17T21:54:42.881Z,23.62
2017-11-17T21:57:09.449Z,27.50
2017-11-17T21:59:36.063Z,30.55
2017-11-17T22:02:02.640Z,27.15
2017-11-17T22:04:29.242Z,29.33
2017-11-17T22:06:55.898Z,34.05
2017-11-17T22:09:22.455Z,29.40
2017-11-17T22:11:49.000Z,26.80
2017-11-17T22:14:15.978Z,30.20
2017-11-17T22:16:42.898Z,28.45
2017-11-17T22:19:09.816Z,29.80
2017-11-17T22:21:36.415Z,36.30
2017-11-17T22:24:03.419Z,40.42
2017-11-17T22:26:29.967Z,36.20
2017-11-17T22:28:56.608Z,29.48
2017-11-17T22:31:23.523Z,30.62
2017-11-17T22:33:50.080Z,26.75
2017-11-17T22:36:16.671Z,27.52
2017-11-17T22:38:43.211Z,28.98
2017-11-17T22:41:09.755Z,29.05
2017-11-17T22:43:36.417Z,32.60
2017-11-17T22:46:02.988Z,25.23
2017-11-17T22:48:29.555Z,29.42
2017-11-17T22:50:56.166Z,29.42
2017-11-17T22:53:23.088Z,34.63
2017-11-17T22:55:49.625Z,33.42
2017-11-17T22:58:16.233Z,22.92
2017-11-17T23:00:42.867Z,29.58
2017-11-17T23:03:09.412Z,35.58
2017-11-17T23:05:36.029Z,34.25
2017-11-17T23:08:02.959Z,28.35
2017-11-17T23:10:29.524Z,27.02
2017-11-17T23:12:56.159Z,37.50
2017-11-17T23:15:22.716Z,31.02
2017-11-17T23:17:49.254Z,34.03
2017-11-17T23:20:15.864Z,34.47
2017-11-17T23:22:42.419Z,29.05
2017-11-17T23:25:08.976Z,31.75
2017-11-17T23:27:35.592Z,29.08
2017-11-17T23:30:02.181Z,27.92
2017-11-17T23:32:28.751Z,26.62
2017-11-17T23:34:55.414Z,32.33
2017-11-17T23:37:21.986Z,38.38
2017-11-17T23:39:48.588Z,29.52
2017-11-17T23:42:15.596Z,25.90
2017-11-17T23:44:42.184Z,33.30
2017-11-17T23:47:08.723Z,28.90
2017-11-17T23:49:35.372Z,36.95
2017-11-17T23:52:01.999Z,33.22
2017-11-17T23:54:28.984Z,36.42
2017-11-17T23:56:55.683Z,33.40
2017-11-17T23:59:22.227Z,32.10
